BTK729 WASS-WAPP
Flight info
| Callsign | BTK729 |
|---|---|
| Flight time | 0h 47m |
| Altitude | 32000 |
| Route | WASS/09 RUMIT1F RUMIT W44 FALAM FALAM1F WAPP/22 |
| Aircraft | A20N/M-VGDW/C |
Departure
| Time | 2026-04-18 08:56 |
|---|---|
| Airport | Domine Eduard Osok Airport (WASS) |
Arrival
| Time | 2026-04-18 09:43 |
|---|---|
| Airport | Pattimura International Airport (WAPP) |
| Time | Latitude | Longitude | Altitude | Speed | Heading |
|---|---|---|---|---|---|
| 2026-04-18 08:41 | -0.89170 | 131.28992 | 25 ft | 0 kts | 4° |
| 2026-04-18 08:47 | -0.89171 | 131.28992 | 25 ft | 1 kts | 4° |
| 2026-04-18 08:47 | -0.89187 | 131.28990 | 25 ft | 2 kts | 4° |
| 2026-04-18 08:47 | -0.89201 | 131.28989 | 25 ft | 2 kts | 4° |
| 2026-04-18 08:47 | -0.89216 | 131.28989 | 25 ft | 2 kts | 4° |
| 2026-04-18 08:48 | -0.89231 | 131.28987 | 25 ft | 2 kts | 4° |
| 2026-04-18 08:48 | -0.89241 | 131.28986 | 25 ft | 2 kts | 358° |
| 2026-04-18 08:48 | -0.89255 | 131.28992 | 25 ft | 2 kts | 318° |
| 2026-04-18 08:48 | -0.89264 | 131.29004 | 25 ft | 2 kts | 284° |
| 2026-04-18 08:49 | -0.89265 | 131.29011 | 25 ft | 1 kts | 268° |
| 2026-04-18 08:49 | -0.89265 | 131.29015 | 25 ft | 0 kts | 273° |
| 2026-04-18 08:50 | -0.89265 | 131.29013 | 25 ft | 0 kts | 274° |
| 2026-04-18 08:50 | -0.89264 | 131.29002 | 25 ft | 3 kts | 272° |
| 2026-04-18 08:51 | -0.89261 | 131.28969 | 25 ft | 6 kts | 274° |
| 2026-04-18 08:51 | -0.89282 | 131.28919 | 25 ft | 10 kts | 207° |
| 2026-04-18 08:51 | -0.89364 | 131.28906 | 25 ft | 12 kts | 182° |
| 2026-04-18 08:51 | -0.89410 | 131.28853 | 25 ft | 12 kts | 274° |
| 2026-04-18 08:52 | -0.89405 | 131.28766 | 25 ft | 12 kts | 274° |
| 2026-04-18 08:52 | -0.89399 | 131.28674 | 25 ft | 13 kts | 274° |
| 2026-04-18 08:52 | -0.89391 | 131.28577 | 25 ft | 14 kts | 273° |
| 2026-04-18 08:52 | -0.89386 | 131.28477 | 26 ft | 13 kts | 274° |
| 2026-04-18 08:53 | -0.89379 | 131.28383 | 27 ft | 13 kts | 274° |
| 2026-04-18 08:53 | -0.89373 | 131.28281 | 27 ft | 15 kts | 274° |
| 2026-04-18 08:53 | -0.89365 | 131.28160 | 27 ft | 19 kts | 274° |
| 2026-04-18 08:53 | -0.89356 | 131.28018 | 26 ft | 21 kts | 274° |
| 2026-04-18 08:54 | -0.89343 | 131.27861 | 24 ft | 20 kts | 283° |
| 2026-04-18 08:54 | -0.89331 | 131.27811 | 24 ft | 3 kts | 153° |
| 2026-04-18 08:54 | -0.89343 | 131.27846 | 24 ft | 0 kts | 95° |
| 2026-04-18 08:55 | -0.89357 | 131.28072 | 26 ft | 72 kts | 94° |
| 2026-04-18 08:55 | -0.89408 | 131.28812 | 25 ft | 140 kts | 93° |
| 2026-04-18 08:55 | -0.89494 | 131.29935 | 302 ft | 170 kts | 93° |
| 2026-04-18 08:56 | -0.89578 | 131.31094 | 1027 ft | 169 kts | 90° |
| 2026-04-18 08:56 | -0.89645 | 131.32245 | 1762 ft | 170 kts | 89° |
| 2026-04-18 08:56 | -0.89802 | 131.33440 | 2259 ft | 184 kts | 110° |
| 2026-04-18 08:56 | -0.90728 | 131.34381 | 2635 ft | 204 kts | 156° |
| 2026-04-18 08:57 | -0.93751 | 131.35031 | 3603 ft | 239 kts | 170° |
| 2026-04-18 08:57 | -0.95441 | 131.35352 | 4119 ft | 257 kts | 168° |
| 2026-04-18 08:57 | -0.97259 | 131.35765 | 4649 ft | 275 kts | 166° |
| 2026-04-18 08:58 | -0.99129 | 131.36240 | 5357 ft | 284 kts | 165° |
| 2026-04-18 08:58 | -1.01039 | 131.36746 | 6226 ft | 286 kts | 165° |
| 2026-04-18 08:58 | -1.02975 | 131.37270 | 7087 ft | 289 kts | 164° |
| 2026-04-18 08:58 | -1.04920 | 131.37797 | 7890 ft | 293 kts | 164° |
| 2026-04-18 08:59 | -1.06924 | 131.38310 | 8669 ft | 298 kts | 170° |
| 2026-04-18 08:59 | -1.08981 | 131.38237 | 9412 ft | 303 kts | 196° |
| 2026-04-18 08:59 | -1.10847 | 131.37277 | 10186 ft | 304 kts | 221° |
| 2026-04-18 08:59 | -1.12167 | 131.35625 | 10748 ft | 313 kts | 245° |
| 2026-04-18 09:00 | -1.12810 | 131.33499 | 11159 ft | 327 kts | 258° |
| 2026-04-18 09:00 | -1.13294 | 131.31273 | 11772 ft | 335 kts | 258° |
| 2026-04-18 09:00 | -1.13801 | 131.28992 | 12499 ft | 338 kts | 258° |
| 2026-04-18 09:00 | -1.14331 | 131.26694 | 13188 ft | 342 kts | 257° |
| 2026-04-18 09:01 | -1.14878 | 131.24388 | 13881 ft | 345 kts | 257° |
| 2026-04-18 09:01 | -1.15440 | 131.22054 | 14560 ft | 348 kts | 257° |
| 2026-04-18 09:01 | -1.16006 | 131.19713 | 15220 ft | 350 kts | 257° |
| 2026-04-18 09:01 | -1.16579 | 131.17354 | 15900 ft | 351 kts | 256° |
| 2026-04-18 09:02 | -1.17149 | 131.15002 | 16557 ft | 352 kts | 256° |
| 2026-04-18 09:02 | -1.17731 | 131.12607 | 17183 ft | 354 kts | 256° |
| 2026-04-18 09:02 | -1.18465 | 131.10278 | 17753 ft | 357 kts | 246° |
| 2026-04-18 09:02 | -1.19699 | 131.08124 | 18319 ft | 359 kts | 233° |
| 2026-04-18 09:03 | -1.21323 | 131.06249 | 18885 ft | 361 kts | 227° |
| 2026-04-18 09:03 | -1.23069 | 131.04436 | 19432 ft | 364 kts | 226° |
| 2026-04-18 09:03 | -1.24852 | 131.02605 | 19950 ft | 368 kts | 226° |
| 2026-04-18 09:03 | -1.26649 | 131.00751 | 20475 ft | 370 kts | 226° |
| 2026-04-18 09:04 | -1.28437 | 130.98897 | 20965 ft | 374 kts | 226° |
| 2026-04-18 09:04 | -1.30237 | 130.97025 | 21448 ft | 377 kts | 227° |
| 2026-04-18 09:04 | -1.32074 | 130.95108 | 21922 ft | 381 kts | 227° |
| 2026-04-18 09:04 | -1.33906 | 130.93195 | 22380 ft | 384 kts | 227° |
| 2026-04-18 09:05 | -1.35751 | 130.91266 | 22862 ft | 387 kts | 226° |
| 2026-04-18 09:05 | -1.37611 | 130.89320 | 23337 ft | 390 kts | 226° |
| 2026-04-18 09:05 | -1.39502 | 130.87343 | 23818 ft | 393 kts | 226° |
| 2026-04-18 09:05 | -1.41381 | 130.85376 | 24290 ft | 396 kts | 226° |
| 2026-04-18 09:06 | -1.43307 | 130.83362 | 24731 ft | 399 kts | 226° |
| 2026-04-18 09:06 | -1.45220 | 130.81363 | 25159 ft | 403 kts | 226° |
| 2026-04-18 09:06 | -1.47161 | 130.79332 | 25603 ft | 406 kts | 225° |
| 2026-04-18 09:06 | -1.49126 | 130.77277 | 26043 ft | 408 kts | 225° |
| 2026-04-18 09:07 | -1.51099 | 130.75215 | 26454 ft | 411 kts | 225° |
| 2026-04-18 09:07 | -1.53084 | 130.73141 | 26848 ft | 415 kts | 225° |
| 2026-04-18 09:07 | -1.55007 | 130.71002 | 27222 ft | 419 kts | 230° |
| 2026-04-18 09:07 | -1.56713 | 130.68625 | 27611 ft | 423 kts | 237° |
| 2026-04-18 09:08 | -1.58143 | 130.66032 | 28008 ft | 426 kts | 243° |
| 2026-04-18 09:08 | -1.59383 | 130.63370 | 28486 ft | 426 kts | 244° |
| 2026-04-18 09:08 | -1.60593 | 130.60678 | 29022 ft | 425 kts | 244° |
| 2026-04-18 09:08 | -1.61793 | 130.58005 | 29531 ft | 425 kts | 244° |
| 2026-04-18 09:09 | -1.63017 | 130.55293 | 30039 ft | 424 kts | 244° |
| 2026-04-18 09:09 | -1.64219 | 130.52643 | 30509 ft | 425 kts | 244° |
| 2026-04-18 09:09 | -1.65441 | 130.49956 | 30920 ft | 427 kts | 244° |
| 2026-04-18 09:09 | -1.66679 | 130.47240 | 31277 ft | 430 kts | 244° |
| 2026-04-18 09:10 | -1.67934 | 130.44485 | 31657 ft | 433 kts | 244° |
| 2026-04-18 09:10 | -1.69184 | 130.41746 | 31830 ft | 436 kts | 244° |
| 2026-04-18 09:10 | -1.71688 | 130.36255 | 31837 ft | 436 kts | 244° |
| 2026-04-18 09:11 | -1.74203 | 130.30737 | 31845 ft | 436 kts | 244° |
| 2026-04-18 09:11 | -1.76713 | 130.25235 | 31848 ft | 435 kts | 244° |
| 2026-04-18 09:12 | -1.79283 | 130.19826 | 31847 ft | 434 kts | 240° |
| 2026-04-18 09:12 | -1.82455 | 130.14674 | 31843 ft | 433 kts | 232° |
| 2026-04-18 09:13 | -1.86217 | 130.10007 | 31842 ft | 432 kts | 225° |
| 2026-04-18 09:13 | -1.90274 | 130.05595 | 31842 ft | 433 kts | 225° |
| 2026-04-18 09:14 | -1.94382 | 130.01141 | 31844 ft | 432 kts | 225° |
| 2026-04-18 09:14 | -1.98429 | 129.96733 | 31854 ft | 432 kts | 225° |
| 2026-04-18 09:15 | -2.02510 | 129.92281 | 31855 ft | 432 kts | 225° |
| 2026-04-18 09:15 | -2.06550 | 129.87872 | 31856 ft | 432 kts | 225° |
| 2026-04-18 09:16 | -2.10611 | 129.83438 | 31854 ft | 432 kts | 225° |
| 2026-04-18 09:16 | -2.14693 | 129.78981 | 31852 ft | 433 kts | 225° |
| 2026-04-18 09:17 | -2.18743 | 129.74562 | 31851 ft | 432 kts | 225° |
| 2026-04-18 09:17 | -2.22793 | 129.70137 | 31851 ft | 432 kts | 225° |
| 2026-04-18 09:18 | -2.26852 | 129.65701 | 31852 ft | 432 kts | 225° |
| 2026-04-18 09:18 | -2.30903 | 129.61278 | 31848 ft | 432 kts | 225° |
| 2026-04-18 09:19 | -2.34954 | 129.56850 | 31844 ft | 432 kts | 225° |
| 2026-04-18 09:19 | -2.39006 | 129.52425 | 31840 ft | 431 kts | 225° |
| 2026-04-18 09:20 | -2.43055 | 129.47996 | 31834 ft | 431 kts | 225° |
| 2026-04-18 09:20 | -2.47109 | 129.43561 | 31831 ft | 431 kts | 225° |
| 2026-04-18 09:21 | -2.49114 | 129.41367 | 31454 ft | 433 kts | 225° |
| 2026-04-18 09:21 | -2.51175 | 129.39122 | 30562 ft | 440 kts | 225° |
| 2026-04-18 09:21 | -2.53259 | 129.36858 | 29804 ft | 442 kts | 225° |
| 2026-04-18 09:21 | -2.55317 | 129.34618 | 29212 ft | 439 kts | 226° |
| 2026-04-18 09:22 | -2.57370 | 129.32376 | 28665 ft | 435 kts | 226° |
| 2026-04-18 09:22 | -2.59410 | 129.30151 | 28145 ft | 430 kts | 226° |
| 2026-04-18 09:22 | -2.61412 | 129.27966 | 27625 ft | 426 kts | 226° |
| 2026-04-18 09:22 | -2.63420 | 129.25775 | 27043 ft | 424 kts | 226° |
| 2026-04-18 09:23 | -2.65404 | 129.23613 | 26441 ft | 423 kts | 226° |
| 2026-04-18 09:23 | -2.67383 | 129.21454 | 25990 ft | 417 kts | 226° |
| 2026-04-18 09:23 | -2.69308 | 129.19353 | 25535 ft | 413 kts | 227° |
| 2026-04-18 09:23 | -2.71265 | 129.17219 | 25058 ft | 409 kts | 227° |
| 2026-04-18 09:24 | -2.73155 | 129.15155 | 24594 ft | 406 kts | 227° |
| 2026-04-18 09:24 | -2.75066 | 129.13069 | 24140 ft | 402 kts | 227° |
| 2026-04-18 09:24 | -2.76938 | 129.11026 | 23668 ft | 399 kts | 227° |
| 2026-04-18 09:24 | -2.78799 | 129.08995 | 23214 ft | 395 kts | 228° |
| 2026-04-18 09:25 | -2.80646 | 129.06978 | 22760 ft | 392 kts | 228° |
| 2026-04-18 09:25 | -2.82474 | 129.04982 | 22296 ft | 389 kts | 228° |
| 2026-04-18 09:25 | -2.84289 | 129.03000 | 21841 ft | 386 kts | 228° |
| 2026-04-18 09:25 | -2.86098 | 129.01022 | 21391 ft | 384 kts | 228° |
| 2026-04-18 09:26 | -2.87902 | 128.99054 | 20938 ft | 382 kts | 228° |
| 2026-04-18 09:26 | -2.89692 | 128.97098 | 20498 ft | 379 kts | 228° |
| 2026-04-18 09:26 | -2.91478 | 128.95148 | 20051 ft | 376 kts | 228° |
| 2026-04-18 09:26 | -2.93230 | 128.93234 | 19607 ft | 374 kts | 228° |
| 2026-04-18 09:27 | -2.94972 | 128.91332 | 19157 ft | 372 kts | 228° |
| 2026-04-18 09:27 | -2.96727 | 128.89414 | 18697 ft | 370 kts | 228° |
| 2026-04-18 09:27 | -2.98454 | 128.87526 | 18241 ft | 368 kts | 228° |
| 2026-04-18 09:27 | -3.00176 | 128.85646 | 17783 ft | 366 kts | 228° |
| 2026-04-18 09:28 | -3.01878 | 128.83786 | 17323 ft | 364 kts | 228° |
| 2026-04-18 09:28 | -3.03572 | 128.81935 | 16859 ft | 362 kts | 228° |
| 2026-04-18 09:28 | -3.05282 | 128.80066 | 16368 ft | 361 kts | 228° |
| 2026-04-18 09:28 | -3.06980 | 128.78209 | 15859 ft | 361 kts | 228° |
| 2026-04-18 09:29 | -3.08658 | 128.76375 | 15327 ft | 362 kts | 227° |
| 2026-04-18 09:29 | -3.10376 | 128.74495 | 14787 ft | 362 kts | 227° |
| 2026-04-18 09:29 | -3.12070 | 128.72644 | 14262 ft | 362 kts | 227° |
| 2026-04-18 09:29 | -3.13759 | 128.70799 | 13738 ft | 362 kts | 227° |
| 2026-04-18 09:30 | -3.15457 | 128.68944 | 13223 ft | 362 kts | 227° |
| 2026-04-18 09:30 | -3.17174 | 128.67068 | 12666 ft | 362 kts | 227° |
| 2026-04-18 09:30 | -3.18849 | 128.65239 | 12166 ft | 360 kts | 227° |
| 2026-04-18 09:30 | -3.20556 | 128.63374 | 11697 ft | 357 kts | 227° |
| 2026-04-18 09:31 | -3.22226 | 128.61548 | 11240 ft | 355 kts | 227° |
| 2026-04-18 09:31 | -3.23867 | 128.59755 | 10782 ft | 352 kts | 227° |
| 2026-04-18 09:31 | -3.25529 | 128.57939 | 10326 ft | 349 kts | 227° |
| 2026-04-18 09:31 | -3.27192 | 128.56203 | 10057 ft | 339 kts | 223° |
| 2026-04-18 09:32 | -3.28979 | 128.54755 | 9974 ft | 324 kts | 214° |
| 2026-04-18 09:32 | -3.30834 | 128.53529 | 9749 ft | 315 kts | 212° |
| 2026-04-18 09:32 | -3.32667 | 128.52379 | 9351 ft | 313 kts | 212° |
| 2026-04-18 09:32 | -3.34506 | 128.51230 | 9036 ft | 308 kts | 212° |
| 2026-04-18 09:33 | -3.36343 | 128.50076 | 8643 ft | 306 kts | 212° |
| 2026-04-18 09:33 | -3.38116 | 128.48953 | 8270 ft | 295 kts | 212° |
| 2026-04-18 09:33 | -3.39817 | 128.47873 | 7925 ft | 287 kts | 213° |
| 2026-04-18 09:33 | -3.41498 | 128.46803 | 7586 ft | 285 kts | 213° |
| 2026-04-18 09:34 | -3.43144 | 128.45752 | 7244 ft | 283 kts | 213° |
| 2026-04-18 09:34 | -3.44812 | 128.44670 | 6894 ft | 282 kts | 213° |
| 2026-04-18 09:34 | -3.46453 | 128.43602 | 6558 ft | 281 kts | 213° |
| 2026-04-18 09:34 | -3.48085 | 128.42541 | 6232 ft | 279 kts | 213° |
| 2026-04-18 09:35 | -3.49700 | 128.41492 | 5901 ft | 278 kts | 214° |
| 2026-04-18 09:35 | -3.51342 | 128.40425 | 5597 ft | 275 kts | 214° |
| 2026-04-18 09:35 | -3.52906 | 128.39409 | 5530 ft | 262 kts | 214° |
| 2026-04-18 09:35 | -3.54399 | 128.38440 | 5522 ft | 247 kts | 214° |
| 2026-04-18 09:36 | -3.55802 | 128.37530 | 5520 ft | 235 kts | 214° |
| 2026-04-18 09:36 | -3.57144 | 128.36565 | 5376 ft | 236 kts | 226° |
| 2026-04-18 09:36 | -3.58109 | 128.35280 | 5125 ft | 231 kts | 246° |
| 2026-04-18 09:36 | -3.58741 | 128.33820 | 4848 ft | 229 kts | 250° |
| 2026-04-18 09:37 | -3.59314 | 128.32326 | 4567 ft | 228 kts | 251° |
| 2026-04-18 09:37 | -3.59877 | 128.30859 | 4297 ft | 227 kts | 250° |
| 2026-04-18 09:37 | -3.60459 | 128.29382 | 4025 ft | 226 kts | 250° |
| 2026-04-18 09:37 | -3.61034 | 128.27946 | 3754 ft | 222 kts | 249° |
| 2026-04-18 09:38 | -3.61606 | 128.26529 | 3491 ft | 217 kts | 250° |
| 2026-04-18 09:38 | -3.62169 | 128.25139 | 3234 ft | 212 kts | 249° |
| 2026-04-18 09:38 | -3.62727 | 128.23790 | 3001 ft | 208 kts | 246° |
| 2026-04-18 09:38 | -3.63404 | 128.22569 | 2859 ft | 196 kts | 239° |
| 2026-04-18 09:39 | -3.64190 | 128.21490 | 2657 ft | 189 kts | 230° |
| 2026-04-18 09:39 | -3.65098 | 128.20549 | 2384 ft | 183 kts | 226° |
| 2026-04-18 09:39 | -3.65963 | 128.19704 | 2291 ft | 161 kts | 225° |
| 2026-04-18 09:39 | -3.66743 | 128.18938 | 2180 ft | 152 kts | 226° |
| 2026-04-18 09:40 | -3.67491 | 128.18199 | 2206 ft | 153 kts | 227° |
| 2026-04-18 09:40 | -3.68237 | 128.17454 | 2251 ft | 146 kts | 229° |
| 2026-04-18 09:40 | -3.68797 | 128.16641 | 2087 ft | 141 kts | 250° |
| 2026-04-18 09:40 | -3.68928 | 128.15706 | 1788 ft | 133 kts | 279° |
| 2026-04-18 09:41 | -3.68737 | 128.14775 | 1695 ft | 136 kts | 282° |
| 2026-04-18 09:41 | -3.68507 | 128.13861 | 1493 ft | 137 kts | 286° |
| 2026-04-18 09:41 | -3.68228 | 128.12941 | 1046 ft | 144 kts | 282° |
| 2026-04-18 09:41 | -3.68236 | 128.11975 | 768 ft | 135 kts | 250° |
| 2026-04-18 09:42 | -3.68747 | 128.11211 | 482 ft | 131 kts | 222° |
| 2026-04-18 09:42 | -3.69400 | 128.10579 | 332 ft | 131 kts | 224° |
| 2026-04-18 09:42 | -3.70052 | 128.09940 | 146 ft | 130 kts | 224° |
| 2026-04-18 09:42 | -3.70675 | 128.09320 | 74 ft | 115 kts | 226° |
| 2026-04-18 09:43 | -3.71129 | 128.08865 | 69 ft | 67 kts | 225° |
| 2026-04-18 09:43 | -3.71329 | 128.08649 | 61 ft | 20 kts | 246° |
| 2026-04-18 09:43 | -3.71330 | 128.08666 | 61 ft | 7 kts | 46° |
| 2026-04-18 09:43 | -3.71286 | 128.08708 | 63 ft | 9 kts | 45° |
| 2026-04-18 09:44 | -3.71236 | 128.08758 | 66 ft | 11 kts | 44° |
| 2026-04-18 09:44 | -3.71170 | 128.08824 | 67 ft | 14 kts | 46° |
| 2026-04-18 09:44 | -3.71082 | 128.08846 | 70 ft | 15 kts | 322° |
| 2026-04-18 09:44 | -3.71000 | 128.08775 | 73 ft | 16 kts | 333° |
| 2026-04-18 09:45 | -3.70896 | 128.08765 | 77 ft | 10 kts | 360° |
| 2026-04-18 09:45 | -3.70827 | 128.08765 | 80 ft | 8 kts | 0° |
| 2026-04-18 09:45 | -3.70770 | 128.08765 | 82 ft | 7 kts | 0° |
| 2026-04-18 09:45 | -3.70725 | 128.08769 | 84 ft | 5 kts | 24° |
| 2026-04-18 09:46 | -3.70691 | 128.08780 | 85 ft | 4 kts | 4° |
| 2026-04-18 09:46 | -3.70665 | 128.08780 | 86 ft | 2 kts | 1° |
| 2026-04-18 09:46 | -3.70654 | 128.08780 | 87 ft | 0 kts | 0° |
| 2026-04-18 09:46 | -3.70647 | 128.08780 | 87 ft | 1 kts | 0° |
| 2026-04-18 09:47 | -3.70629 | 128.08780 | 88 ft | 0 kts | 0° |